sensor_id;sensor_type;location;lat;lon;timestamp;P1;durP1;ratioP1;P2;durP2;ratioP2
11222;SDS011;5668;52.012;8.724;2022-09-14T00:00:49;4.50;;;1.00;;
11222;SDS011;5668;52.012;8.724;2022-09-14T00:03:17;3.40;;;1.00;;
11222;SDS011;5668;52.012;8.724;2022-09-14T00:05:44;1.77;;;0.85;;
11222;SDS011;5668;52.012;8.724;2022-09-14T00:08:13;2.20;;;0.93;;
11222;SDS011;5668;52.012;8.724;2022-09-14T00:10:40;3.03;;;0.95;;
11222;SDS011;5668;52.012;8.724;2022-09-14T00:13:09;3.63;;;1.00;;
11222;SDS011;5668;52.012;8.724;2022-09-14T00:15:37;2.67;;;1.10;;
11222;SDS011;5668;52.012;8.724;2022-09-14T00:18:08;3.33;;;1.10;;
11222;SDS011;5668;52.012;8.724;2022-09-14T00:20:36;3.13;;;0.90;;
11222;SDS011;5668;52.012;8.724;2022-09-14T00:23:03;2.28;;;0.80;;
11222;SDS011;5668;52.012;8.724;2022-09-14T00:25:32;3.15;;;1.20;;
11222;SDS011;5668;52.012;8.724;2022-09-14T00:27:59;3.83;;;0.98;;
11222;SDS011;5668;52.012;8.724;2022-09-14T00:30:26;2.55;;;0.88;;
11222;SDS011;5668;52.012;8.724;2022-09-14T00:32:54;4.07;;;1.23;;
11222;SDS011;5668;52.012;8.724;2022-09-14T00:35:21;4.53;;;1.58;;
11222;SDS011;5668;52.012;8.724;2022-09-14T00:37:48;4.82;;;2.20;;
11222;SDS011;5668;52.012;8.724;2022-09-14T00:40:17;4.70;;;1.67;;
11222;SDS011;5668;52.012;8.724;2022-09-14T00:42:46;5.75;;;1.67;;
11222;SDS011;5668;52.012;8.724;2022-09-14T00:45:14;4.88;;;2.13;;
11222;SDS011;5668;52.012;8.724;2022-09-14T00:47:43;6.05;;;2.10;;
11222;SDS011;5668;52.012;8.724;2022-09-14T00:50:15;6.95;;;2.88;;
11222;SDS011;5668;52.012;8.724;2022-09-14T00:52:45;5.85;;;2.60;;
11222;SDS011;5668;52.012;8.724;2022-09-14T00:55:16;7.45;;;2.22;;
11222;SDS011;5668;52.012;8.724;2022-09-14T00:57:49;5.55;;;2.08;;
11222;SDS011;5668;52.012;8.724;2022-09-14T01:00:19;5.22;;;2.30;;
11222;SDS011;5668;52.012;8.724;2022-09-14T01:02:48;6.60;;;2.75;;
11222;SDS011;5668;52.012;8.724;2022-09-14T01:05:15;7.32;;;2.85;;
11222;SDS011;5668;52.012;8.724;2022-09-14T01:07:55;5.63;;;2.40;;
11222;SDS011;5668;52.012;8.724;2022-09-14T01:10:47;4.78;;;2.22;;
11222;SDS011;5668;52.012;8.724;2022-09-14T01:13:38;3.53;;;1.70;;
11222;SDS011;5668;52.012;8.724;2022-09-14T01:16:12;5.72;;;1.95;;
11222;SDS011;5668;52.012;8.724;2022-09-14T01:18:48;3.38;;;1.35;;
11222;SDS011;5668;52.012;8.724;2022-09-14T01:21:19;4.72;;;1.42;;
11222;SDS011;5668;52.012;8.724;2022-09-14T01:23:50;4.10;;;1.23;;
11222;SDS011;5668;52.012;8.724;2022-09-14T01:26:30;4.30;;;1.38;;
11222;SDS011;5668;52.012;8.724;2022-09-14T01:29:12;4.72;;;1.27;;
11222;SDS011;5668;52.012;8.724;2022-09-14T01:31:45;2.35;;;1.02;;
11222;SDS011;5668;52.012;8.724;2022-09-14T01:34:17;2.70;;;1.08;;
11222;SDS011;5668;52.012;8.724;2022-09-14T01:36:51;4.60;;;1.25;;
11222;SDS011;5668;52.012;8.724;2022-09-14T01:39:23;2.80;;;1.15;;
11222;SDS011;5668;52.012;8.724;2022-09-14T01:41:52;4.65;;;1.20;;
11222;SDS011;5668;52.012;8.724;2022-09-14T01:44:23;2.72;;;1.10;;
11222;SDS011;5668;52.012;8.724;2022-09-14T01:46:56;2.38;;;1.15;;
11222;SDS011;5668;52.012;8.724;2022-09-14T01:49:29;4.68;;;1.27;;
11222;SDS011;5668;52.012;8.724;2022-09-14T01:52:00;3.53;;;1.20;;
11222;SDS011;5668;52.012;8.724;2022-09-14T01:54:32;4.18;;;1.50;;
11222;SDS011;5668;52.012;8.724;2022-09-14T01:59:49;6.68;;;1.60;;
11222;SDS011;5668;52.012;8.724;2022-09-14T02:02:20;4.43;;;2.10;;
11222;SDS011;5668;52.012;8.724;2022-09-14T02:04:53;4.47;;;1.70;;
11222;SDS011;5668;52.012;8.724;2022-09-14T02:07:26;4.93;;;1.77;;
11222;SDS011;5668;52.012;8.724;2022-09-14T02:09:54;3.72;;;1.60;;
11222;SDS011;5668;52.012;8.724;2022-09-14T02:12:23;4.40;;;1.58;;
11222;SDS011;5668;52.012;8.724;2022-09-14T02:14:52;2.78;;;1.33;;
11222;SDS011;5668;52.012;8.724;2022-09-14T02:17:20;2.45;;;1.27;;
11222;SDS011;5668;52.012;8.724;2022-09-14T02:19:48;3.75;;;1.50;;
11222;SDS011;5668;52.012;8.724;2022-09-14T02:22:20;4.03;;;1.65;;
11222;SDS011;5668;52.012;8.724;2022-09-14T02:24:47;4.85;;;1.15;;
11222;SDS011;5668;52.012;8.724;2022-09-14T02:27:16;3.03;;;1.10;;
11222;SDS011;5668;52.012;8.724;2022-09-14T02:29:43;3.20;;;1.20;;
11222;SDS011;5668;52.012;8.724;2022-09-14T02:32:14;3.85;;;1.30;;
11222;SDS011;5668;52.012;8.724;2022-09-14T02:34:51;2.17;;;0.90;;
11222;SDS011;5668;52.012;8.724;2022-09-14T02:37:26;2.38;;;1.23;;
11222;SDS011;5668;52.012;8.724;2022-09-14T02:40:04;2.90;;;1.10;;
11222;SDS011;5668;52.012;8.724;2022-09-14T02:42:41;3.30;;;0.90;;
11222;SDS011;5668;52.012;8.724;2022-09-14T02:45:17;4.55;;;1.17;;
11222;SDS011;5668;52.012;8.724;2022-09-14T02:47:51;3.03;;;1.23;;
11222;SDS011;5668;52.012;8.724;2022-09-14T02:50:27;3.38;;;1.40;;
11222;SDS011;5668;52.012;8.724;2022-09-14T02:53:02;3.65;;;1.20;;
11222;SDS011;5668;52.012;8.724;2022-09-14T02:55:33;2.42;;;1.08;;
11222;SDS011;5668;52.012;8.724;2022-09-14T02:58:04;2.67;;;1.30;;
11222;SDS011;5668;52.012;8.724;2022-09-14T03:00:34;5.85;;;1.48;;
11222;SDS011;5668;52.012;8.724;2022-09-14T03:03:04;4.18;;;1.23;;
11222;SDS011;5668;52.012;8.724;2022-09-14T03:05:33;3.25;;;1.35;;
11222;SDS011;5668;52.012;8.724;2022-09-14T03:08:01;3.00;;;1.10;;
11222;SDS011;5668;52.012;8.724;2022-09-14T03:10:29;3.15;;;1.17;;
11222;SDS011;5668;52.012;8.724;2022-09-14T03:12:57;2.97;;;1.00;;
11222;SDS011;5668;52.012;8.724;2022-09-14T03:15:24;2.50;;;1.20;;
11222;SDS011;5668;52.012;8.724;2022-09-14T03:17:52;4.90;;;1.25;;
11222;SDS011;5668;52.012;8.724;2022-09-14T03:20:22;5.18;;;1.30;;
11222;SDS011;5668;52.012;8.724;2022-09-14T03:22:51;3.55;;;1.30;;
11222;SDS011;5668;52.012;8.724;2022-09-14T03:25:19;3.65;;;1.23;;
11222;SDS011;5668;52.012;8.724;2022-09-14T03:27:48;1.48;;;1.00;;
11222;SDS011;5668;52.012;8.724;2022-09-14T03:30:16;2.00;;;0.98;;
11222;SDS011;5668;52.012;8.724;2022-09-14T03:32:44;3.00;;;1.10;;
11222;SDS011;5668;52.012;8.724;2022-09-14T03:35:12;1.90;;;1.10;;
11222;SDS011;5668;52.012;8.724;2022-09-14T03:37:41;3.30;;;1.35;;
11222;SDS011;5668;52.012;8.724;2022-09-14T03:40:11;3.33;;;1.30;;
11222;SDS011;5668;52.012;8.724;2022-09-14T03:42:41;5.53;;;1.35;;
11222;SDS011;5668;52.012;8.724;2022-09-14T03:45:09;4.85;;;1.15;;
11222;SDS011;5668;52.012;8.724;2022-09-14T03:47:36;3.63;;;1.20;;
11222;SDS011;5668;52.012;8.724;2022-09-14T03:50:05;4.65;;;1.40;;
11222;SDS011;5668;52.012;8.724;2022-09-14T03:52:35;2.22;;;1.10;;
11222;SDS011;5668;52.012;8.724;2022-09-14T03:55:05;3.80;;;1.60;;
11222;SDS011;5668;52.012;8.724;2022-09-14T03:57:34;4.38;;;1.30;;
11222;SDS011;5668;52.012;8.724;2022-09-14T04:00:02;2.80;;;1.25;;
11222;SDS011;5668;52.012;8.724;2022-09-14T04:02:31;3.78;;;1.27;;
11222;SDS011;5668;52.012;8.724;2022-09-14T04:04:58;3.28;;;1.25;;
11222;SDS011;5668;52.012;8.724;2022-09-14T04:07:25;4.05;;;1.33;;
11222;SDS011;5668;52.012;8.724;2022-09-14T04:09:53;2.92;;;1.20;;
11222;SDS011;5668;52.012;8.724;2022-09-14T04:12:22;3.28;;;1.30;;
11222;SDS011;5668;52.012;8.724;2022-09-14T04:14:49;2.05;;;1.10;;
11222;SDS011;5668;52.012;8.724;2022-09-14T04:17:16;4.57;;;1.20;;
11222;SDS011;5668;52.012;8.724;2022-09-14T04:19:43;4.75;;;1.50;;
11222;SDS011;5668;52.012;8.724;2022-09-14T04:22:11;2.33;;;1.40;;
11222;SDS011;5668;52.012;8.724;2022-09-14T04:24:38;3.35;;;1.38;;
11222;SDS011;5668;52.012;8.724;2022-09-14T04:27:05;2.78;;;1.30;;
11222;SDS011;5668;52.012;8.724;2022-09-14T04:29:33;3.25;;;1.40;;
11222;SDS011;5668;52.012;8.724;2022-09-14T04:32:01;3.08;;;1.17;;
11222;SDS011;5668;52.012;8.724;2022-09-14T04:34:28;2.88;;;1.40;;
11222;SDS011;5668;52.012;8.724;2022-09-14T04:36:55;5.03;;;1.30;;
11222;SDS011;5668;52.012;8.724;2022-09-14T04:39:23;1.88;;;1.02;;
11222;SDS011;5668;52.012;8.724;2022-09-14T04:41:50;3.53;;;1.30;;
11222;SDS011;5668;52.012;8.724;2022-09-14T04:44:17;3.55;;;1.70;;
11222;SDS011;5668;52.012;8.724;2022-09-14T04:46:46;3.65;;;1.38;;
11222;SDS011;5668;52.012;8.724;2022-09-14T04:49:13;3.75;;;1.20;;
11222;SDS011;5668;52.012;8.724;2022-09-14T04:51:42;3.85;;;1.27;;
11222;SDS011;5668;52.012;8.724;2022-09-14T04:54:11;4.18;;;1.33;;
11222;SDS011;5668;52.012;8.724;2022-09-14T04:56:41;2.55;;;1.20;;
11222;SDS011;5668;52.012;8.724;2022-09-14T04:59:09;5.00;;;1.10;;
11222;SDS011;5668;52.012;8.724;2022-09-14T05:01:37;3.28;;;1.25;;
11222;SDS011;5668;52.012;8.724;2022-09-14T05:04:07;3.80;;;1.50;;
11222;SDS011;5668;52.012;8.724;2022-09-14T05:06:36;2.95;;;1.67;;
11222;SDS011;5668;52.012;8.724;2022-09-14T05:09:06;5.22;;;1.63;;
11222;SDS011;5668;52.012;8.724;2022-09-14T05:11:37;5.22;;;1.55;;
11222;SDS011;5668;52.012;8.724;2022-09-14T05:14:05;5.90;;;1.38;;
11222;SDS011;5668;52.012;8.724;2022-09-14T05:16:32;4.47;;;1.50;;
11222;SDS011;5668;52.012;8.724;2022-09-14T05:19:02;2.88;;;1.23;;
11222;SDS011;5668;52.012;8.724;2022-09-14T05:21:33;4.53;;;1.40;;
11222;SDS011;5668;52.012;8.724;2022-09-14T05:24:02;4.70;;;1.40;;
11222;SDS011;5668;52.012;8.724;2022-09-14T05:26:30;4.70;;;1.50;;
11222;SDS011;5668;52.012;8.724;2022-09-14T05:28:59;3.72;;;1.40;;
11222;SDS011;5668;52.012;8.724;2022-09-14T05:31:27;3.22;;;1.63;;
11222;SDS011;5668;52.012;8.724;2022-09-14T05:33:56;3.13;;;1.52;;
11222;SDS011;5668;52.012;8.724;2022-09-14T05:36:23;3.65;;;1.80;;
11222;SDS011;5668;52.012;8.724;2022-09-14T05:38:52;2.63;;;1.33;;
11222;SDS011;5668;52.012;8.724;2022-09-14T05:41:21;4.03;;;1.42;;
11222;SDS011;5668;52.012;8.724;2022-09-14T05:43:48;4.40;;;1.30;;
11222;SDS011;5668;52.012;8.724;2022-09-14T05:46:16;4.50;;;1.35;;
11222;SDS011;5668;52.012;8.724;2022-09-14T05:48:44;4.15;;;1.80;;
11222;SDS011;5668;52.012;8.724;2022-09-14T05:51:15;3.60;;;1.63;;
11222;SDS011;5668;52.012;8.724;2022-09-14T05:53:45;3.70;;;1.40;;
11222;SDS011;5668;52.012;8.724;2022-09-14T05:56:15;5.00;;;1.55;;
11222;SDS011;5668;52.012;8.724;2022-09-14T05:58:44;2.65;;;1.20;;
11222;SDS011;5668;52.012;8.724;2022-09-14T06:01:12;2.58;;;1.17;;
11222;SDS011;5668;52.012;8.724;2022-09-14T06:03:41;5.22;;;1.65;;
11222;SDS011;5668;52.012;8.724;2022-09-14T06:06:09;3.67;;;1.48;;
11222;SDS011;5668;52.012;8.724;2022-09-14T06:08:38;2.15;;;1.50;;
11222;SDS011;5668;52.012;8.724;2022-09-14T06:11:06;4.35;;;1.40;;
11222;SDS011;5668;52.012;8.724;2022-09-14T06:13:36;5.45;;;1.40;;
11222;SDS011;5668;52.012;8.724;2022-09-14T06:16:03;7.82;;;1.85;;
11222;SDS011;5668;52.012;8.724;2022-09-14T06:18:32;4.35;;;1.63;;
11222;SDS011;5668;52.012;8.724;2022-09-14T06:21:00;3.63;;;1.40;;
11222;SDS011;5668;52.012;8.724;2022-09-14T06:23:28;2.45;;;1.30;;
11222;SDS011;5668;52.012;8.724;2022-09-14T06:25:57;3.92;;;1.40;;
11222;SDS011;5668;52.012;8.724;2022-09-14T06:28:26;6.40;;;1.42;;
11222;SDS011;5668;52.012;8.724;2022-09-14T06:30:55;4.72;;;1.85;;
11222;SDS011;5668;52.012;8.724;2022-09-14T06:33:22;2.58;;;1.17;;
11222;SDS011;5668;52.012;8.724;2022-09-14T06:35:53;4.88;;;1.70;;
11222;SDS011;5668;52.012;8.724;2022-09-14T06:38:21;4.13;;;1.40;;
11222;SDS011;5668;52.012;8.724;2022-09-14T06:40:49;3.35;;;1.25;;
11222;SDS011;5668;52.012;8.724;2022-09-14T06:43:17;2.45;;;1.45;;
11222;SDS011;5668;52.012;8.724;2022-09-14T06:45:54;4.28;;;1.50;;
11222;SDS011;5668;52.012;8.724;2022-09-14T06:48:23;3.58;;;1.40;;
11222;SDS011;5668;52.012;8.724;2022-09-14T06:50:50;3.28;;;1.52;;
11222;SDS011;5668;52.012;8.724;2022-09-14T06:53:18;5.30;;;1.63;;
11222;SDS011;5668;52.012;8.724;2022-09-14T06:55:45;4.45;;;1.80;;
11222;SDS011;5668;52.012;8.724;2022-09-14T06:58:13;3.47;;;1.80;;
11222;SDS011;5668;52.012;8.724;2022-09-14T07:00:40;3.42;;;1.60;;
11222;SDS011;5668;52.012;8.724;2022-09-14T07:03:09;3.88;;;1.45;;
11222;SDS011;5668;52.012;8.724;2022-09-14T07:05:36;4.15;;;1.85;;
11222;SDS011;5668;52.012;8.724;2022-09-14T07:08:03;3.10;;;1.70;;
11222;SDS011;5668;52.012;8.724;2022-09-14T07:10:30;5.15;;;1.67;;
11222;SDS011;5668;52.012;8.724;2022-09-14T07:12:58;3.72;;;1.50;;
11222;SDS011;5668;52.012;8.724;2022-09-14T07:15:25;4.50;;;1.77;;
11222;SDS011;5668;52.012;8.724;2022-09-14T07:17:52;6.53;;;1.88;;
11222;SDS011;5668;52.012;8.724;2022-09-14T07:20:21;4.47;;;1.77;;
11222;SDS011;5668;52.012;8.724;2022-09-14T07:22:48;2.47;;;1.48;;
11222;SDS011;5668;52.012;8.724;2022-09-14T07:25:16;3.67;;;1.50;;
11222;SDS011;5668;52.012;8.724;2022-09-14T07:27:43;4.30;;;1.48;;
11222;SDS011;5668;52.012;8.724;2022-09-14T07:30:10;2.80;;;1.30;;
11222;SDS011;5668;52.012;8.724;2022-09-14T07:32:37;4.07;;;1.50;;
11222;SDS011;5668;52.012;8.724;2022-09-14T07:35:05;5.47;;;1.40;;
11222;SDS011;5668;52.012;8.724;2022-09-14T07:37:33;2.58;;;1.48;;
11222;SDS011;5668;52.012;8.724;2022-09-14T07:40:01;2.95;;;1.88;;
11222;SDS011;5668;52.012;8.724;2022-09-14T07:42:29;6.05;;;1.83;;
11222;SDS011;5668;52.012;8.724;2022-09-14T07:44:57;4.60;;;2.00;;
11222;SDS011;5668;52.012;8.724;2022-09-14T07:47:24;4.28;;;1.80;;
11222;SDS011;5668;52.012;8.724;2022-09-14T07:49:51;4.65;;;1.60;;
11222;SDS011;5668;52.012;8.724;2022-09-14T07:52:19;2.60;;;1.60;;
11222;SDS011;5668;52.012;8.724;2022-09-14T07:54:47;4.10;;;1.90;;
11222;SDS011;5668;52.012;8.724;2022-09-14T07:57:15;2.97;;;1.67;;
11222;SDS011;5668;52.012;8.724;2022-09-14T07:59:42;4.32;;;1.90;;
11222;SDS011;5668;52.012;8.724;2022-09-14T08:02:09;5.18;;;2.55;;
11222;SDS011;5668;52.012;8.724;2022-09-14T08:04:37;5.13;;;2.25;;
11222;SDS011;5668;52.012;8.724;2022-09-14T08:07:04;6.72;;;1.90;;
11222;SDS011;5668;52.012;8.724;2022-09-14T08:09:31;5.00;;;1.65;;
11222;SDS011;5668;52.012;8.724;2022-09-14T08:12:00;2.88;;;1.58;;
11222;SDS011;5668;52.012;8.724;2022-09-14T08:14:30;4.00;;;1.50;;
11222;SDS011;5668;52.012;8.724;2022-09-14T08:16:57;4.95;;;1.70;;
11222;SDS011;5668;52.012;8.724;2022-09-14T08:19:25;3.47;;;1.40;;
11222;SDS011;5668;52.012;8.724;2022-09-14T08:21:52;5.07;;;1.40;;
11222;SDS011;5668;52.012;8.724;2022-09-14T08:24:20;2.42;;;1.23;;
11222;SDS011;5668;52.012;8.724;2022-09-14T08:26:47;4.20;;;1.48;;
11222;SDS011;5668;52.012;8.724;2022-09-14T08:29:16;3.78;;;1.45;;
11222;SDS011;5668;52.012;8.724;2022-09-14T08:31:44;5.95;;;1.40;;
11222;SDS011;5668;52.012;8.724;2022-09-14T08:34:13;5.63;;;1.70;;
11222;SDS011;5668;52.012;8.724;2022-09-14T08:36:41;4.93;;;1.70;;
11222;SDS011;5668;52.012;8.724;2022-09-14T08:39:10;2.72;;;1.70;;
11222;SDS011;5668;52.012;8.724;2022-09-14T08:41:45;3.17;;;1.10;;
11222;SDS011;5668;52.012;8.724;2022-09-14T08:44:19;3.75;;;1.20;;
11222;SDS011;5668;52.012;8.724;2022-09-14T08:46:50;3.97;;;1.13;;
11222;SDS011;5668;52.012;8.724;2022-09-14T08:49:26;3.22;;;1.45;;
11222;SDS011;5668;52.012;8.724;2022-09-14T08:52:08;4.75;;;1.30;;
11222;SDS011;5668;52.012;8.724;2022-09-14T08:54:41;3.58;;;1.75;;
11222;SDS011;5668;52.012;8.724;2022-09-14T08:57:11;3.50;;;1.25;;
11222;SDS011;5668;52.012;8.724;2022-09-14T08:59:45;4.95;;;1.40;;
11222;SDS011;5668;52.012;8.724;2022-09-14T09:05:20;4.55;;;1.30;;
11222;SDS011;5668;52.012;8.724;2022-09-14T09:07:54;3.75;;;1.25;;
11222;SDS011;5668;52.012;8.724;2022-09-14T09:10:28;3.92;;;1.20;;
11222;SDS011;5668;52.012;8.724;2022-09-14T09:12:57;3.25;;;1.30;;
11222;SDS011;5668;52.012;8.724;2022-09-14T09:15:28;4.32;;;1.08;;
11222;SDS011;5668;52.012;8.724;2022-09-14T09:18:01;3.00;;;1.13;;
11222;SDS011;5668;52.012;8.724;2022-09-14T09:20:32;4.47;;;0.98;;
11222;SDS011;5668;52.012;8.724;2022-09-14T09:23:05;2.53;;;0.85;;
11222;SDS011;5668;52.012;8.724;2022-09-14T09:25:43;3.22;;;0.90;;
11222;SDS011;5668;52.012;8.724;2022-09-14T09:28:16;1.80;;;0.90;;
11222;SDS011;5668;52.012;8.724;2022-09-14T09:30:46;3.00;;;0.95;;
11222;SDS011;5668;52.012;8.724;2022-09-14T09:33:14;3.45;;;1.27;;
11222;SDS011;5668;52.012;8.724;2022-09-14T09:35:44;3.70;;;1.58;;
11222;SDS011;5668;52.012;8.724;2022-09-14T09:38:12;4.65;;;1.30;;
11222;SDS011;5668;52.012;8.724;2022-09-14T09:40:43;3.80;;;1.10;;
11222;SDS011;5668;52.012;8.724;2022-09-14T09:43:14;5.00;;;1.15;;
11222;SDS011;5668;52.012;8.724;2022-09-14T09:45:48;3.28;;;1.10;;
11222;SDS011;5668;52.012;8.724;2022-09-14T09:48:21;3.22;;;1.15;;
11222;SDS011;5668;52.012;8.724;2022-09-14T09:50:58;2.65;;;1.20;;
11222;SDS011;5668;52.012;8.724;2022-09-14T09:53:29;2.30;;;1.08;;
11222;SDS011;5668;52.012;8.724;2022-09-14T09:55:59;2.63;;;1.10;;
11222;SDS011;5668;52.012;8.724;2022-09-14T09:58:32;1.50;;;1.00;;
11222;SDS011;5668;52.012;8.724;2022-09-14T10:01:03;5.80;;;1.20;;
11222;SDS011;5668;52.012;8.724;2022-09-14T10:03:35;4.60;;;1.15;;
11222;SDS011;5668;52.012;8.724;2022-09-14T10:06:05;4.35;;;1.42;;
11222;SDS011;5668;52.012;8.724;2022-09-14T10:08:41;3.30;;;1.30;;
11222;SDS011;5668;52.012;8.724;2022-09-14T10:11:26;2.88;;;1.10;;
11222;SDS011;5668;52.012;8.724;2022-09-14T10:13:56;6.95;;;1.50;;
11222;SDS011;5668;52.012;8.724;2022-09-14T10:16:26;3.60;;;1.45;;
11222;SDS011;5668;52.012;8.724;2022-09-14T10:18:59;3.95;;;1.05;;
11222;SDS011;5668;52.012;8.724;2022-09-14T10:21:28;5.80;;;1.40;;
11222;SDS011;5668;52.012;8.724;2022-09-14T10:24:03;1.70;;;0.90;;
11222;SDS011;5668;52.012;8.724;2022-09-14T10:26:40;2.72;;;1.08;;
11222;SDS011;5668;52.012;8.724;2022-09-14T10:32:01;4.13;;;1.05;;
11222;SDS011;5668;52.012;8.724;2022-09-14T10:34:36;3.63;;;1.15;;
11222;SDS011;5668;52.012;8.724;2022-09-14T10:37:06;4.28;;;1.30;;
11222;SDS011;5668;52.012;8.724;2022-09-14T10:39:46;2.05;;;1.00;;
11222;SDS011;5668;52.012;8.724;2022-09-14T10:42:23;4.88;;;1.10;;
11222;SDS011;5668;52.012;8.724;2022-09-14T10:44:59;6.68;;;1.38;;
11222;SDS011;5668;52.012;8.724;2022-09-14T10:47:45;4.47;;;1.15;;
11222;SDS011;5668;52.012;8.724;2022-09-14T10:50:40;3.95;;;1.20;;
11222;SDS011;5668;52.012;8.724;2022-09-14T10:53:28;5.85;;;1.20;;
11222;SDS011;5668;52.012;8.724;2022-09-14T10:56:07;1.92;;;1.00;;
11222;SDS011;5668;52.012;8.724;2022-09-14T10:58:49;7.93;;;1.25;;
11222;SDS011;5668;52.012;8.724;2022-09-14T11:01:30;2.47;;;1.00;;
11222;SDS011;5668;52.012;8.724;2022-09-14T11:04:15;3.25;;;0.90;;
11222;SDS011;5668;52.012;8.724;2022-09-14T11:06:59;3.55;;;0.80;;
11222;SDS011;5668;52.012;8.724;2022-09-14T11:09:34;3.95;;;1.02;;
11222;SDS011;5668;52.012;8.724;2022-09-14T11:12:09;2.88;;;1.23;;
11222;SDS011;5668;52.012;8.724;2022-09-14T11:14:48;3.00;;;1.10;;
11222;SDS011;5668;52.012;8.724;2022-09-14T11:17:28;4.22;;;1.40;;
11222;SDS011;5668;52.012;8.724;2022-09-14T11:20:14;2.80;;;1.40;;
11222;SDS011;5668;52.012;8.724;2022-09-14T11:22:56;2.53;;;1.20;;
11222;SDS011;5668;52.012;8.724;2022-09-14T11:25:35;3.40;;;1.17;;
11222;SDS011;5668;52.012;8.724;2022-09-14T11:28:11;4.68;;;1.30;;
11222;SDS011;5668;52.012;8.724;2022-09-14T11:30:42;3.13;;;1.23;;
11222;SDS011;5668;52.012;8.724;2022-09-14T11:33:15;3.38;;;1.00;;
11222;SDS011;5668;52.012;8.724;2022-09-14T11:35:49;3.70;;;1.40;;
11222;SDS011;5668;52.012;8.724;2022-09-14T11:38:20;3.50;;;1.30;;
11222;SDS011;5668;52.012;8.724;2022-09-14T11:40:50;5.63;;;1.40;;
11222;SDS011;5668;52.012;8.724;2022-09-14T11:43:23;6.57;;;1.90;;
11222;SDS011;5668;52.012;8.724;2022-09-14T11:45:57;5.03;;;1.30;;
11222;SDS011;5668;52.012;8.724;2022-09-14T11:48:30;4.00;;;1.05;;
11222;SDS011;5668;52.012;8.724;2022-09-14T11:51:07;4.07;;;1.25;;
11222;SDS011;5668;52.012;8.724;2022-09-14T11:53:39;2.85;;;1.23;;
11222;SDS011;5668;52.012;8.724;2022-09-14T11:56:14;3.28;;;0.98;;
11222;SDS011;5668;52.012;8.724;2022-09-14T11:58:51;3.20;;;1.15;;
11222;SDS011;5668;52.012;8.724;2022-09-14T12:01:25;5.20;;;1.17;;
11222;SDS011;5668;52.012;8.724;2022-09-14T12:06:51;4.53;;;1.30;;
11222;SDS011;5668;52.012;8.724;2022-09-14T12:09:39;3.05;;;1.20;;
11222;SDS011;5668;52.012;8.724;2022-09-14T12:14:57;5.68;;;1.63;;
11222;SDS011;5668;52.012;8.724;2022-09-14T12:17:27;4.28;;;1.85;;
11222;SDS011;5668;52.012;8.724;2022-09-14T12:20:19;5.78;;;1.27;;
11222;SDS011;5668;52.012;8.724;2022-09-14T12:23:05;3.53;;;1.27;;
11222;SDS011;5668;52.012;8.724;2022-09-14T12:25:51;3.72;;;1.15;;
11222;SDS011;5668;52.012;8.724;2022-09-14T12:28:26;6.53;;;1.45;;
11222;SDS011;5668;52.012;8.724;2022-09-14T12:31:07;2.33;;;1.00;;
11222;SDS011;5668;52.012;8.724;2022-09-14T12:37:00;1.90;;;1.08;;
11222;SDS011;5668;52.012;8.724;2022-09-14T12:39:31;3.50;;;1.13;;
11222;SDS011;5668;52.012;8.724;2022-09-14T12:42:00;3.72;;;1.10;;
11222;SDS011;5668;52.012;8.724;2022-09-14T12:44:34;3.17;;;0.93;;
11222;SDS011;5668;52.012;8.724;2022-09-14T12:50:19;2.65;;;1.20;;
11222;SDS011;5668;52.012;8.724;2022-09-14T12:52:56;4.65;;;1.13;;
11222;SDS011;5668;52.012;8.724;2022-09-14T12:55:53;3.88;;;1.10;;
11222;SDS011;5668;52.012;8.724;2022-09-14T12:58:30;3.45;;;1.20;;
11222;SDS011;5668;52.012;8.724;2022-09-14T13:04:00;6.30;;;2.10;;
11222;SDS011;5668;52.012;8.724;2022-09-14T13:06:31;4.10;;;1.20;;
11222;SDS011;5668;52.012;8.724;2022-09-14T13:09:04;2.40;;;1.10;;
11222;SDS011;5668;52.012;8.724;2022-09-14T13:11:43;3.45;;;1.05;;
11222;SDS011;5668;52.012;8.724;2022-09-14T13:14:15;4.32;;;0.98;;
11222;SDS011;5668;52.012;8.724;2022-09-14T13:16:44;5.00;;;1.30;;
11222;SDS011;5668;52.012;8.724;2022-09-14T13:19:18;3.28;;;1.10;;
11222;SDS011;5668;52.012;8.724;2022-09-14T13:21:47;3.30;;;1.20;;
11222;SDS011;5668;52.012;8.724;2022-09-14T13:24:21;3.05;;;1.30;;
11222;SDS011;5668;52.012;8.724;2022-09-14T13:26:53;5.22;;;1.50;;
11222;SDS011;5668;52.012;8.724;2022-09-14T13:29:22;4.03;;;1.23;;
11222;SDS011;5668;52.012;8.724;2022-09-14T13:31:51;3.10;;;1.20;;
11222;SDS011;5668;52.012;8.724;2022-09-14T13:34:21;3.72;;;1.05;;
11222;SDS011;5668;52.012;8.724;2022-09-14T13:36:50;2.72;;;1.10;;
11222;SDS011;5668;52.012;8.724;2022-09-14T13:39:22;2.58;;;0.95;;
11222;SDS011;5668;52.012;8.724;2022-09-14T13:41:53;3.30;;;1.08;;
11222;SDS011;5668;52.012;8.724;2022-09-14T13:44:23;3.42;;;0.98;;
11222;SDS011;5668;52.012;8.724;2022-09-14T13:46:53;3.05;;;1.00;;
11222;SDS011;5668;52.012;8.724;2022-09-14T13:49:22;2.63;;;1.05;;
11222;SDS011;5668;52.012;8.724;2022-09-14T13:51:50;4.93;;;1.38;;
11222;SDS011;5668;52.012;8.724;2022-09-14T13:54:24;2.67;;;1.00;;
11222;SDS011;5668;52.012;8.724;2022-09-14T13:57:13;2.60;;;1.00;;
11222;SDS011;5668;52.012;8.724;2022-09-14T14:02:42;2.35;;;1.00;;
11222;SDS011;5668;52.012;8.724;2022-09-14T14:05:19;2.08;;;0.90;;
11222;SDS011;5668;52.012;8.724;2022-09-14T14:07:48;3.20;;;1.30;;
11222;SDS011;5668;52.012;8.724;2022-09-14T14:10:20;2.53;;;1.00;;
11222;SDS011;5668;52.012;8.724;2022-09-14T14:12:51;2.10;;;0.80;;
11222;SDS011;5668;52.012;8.724;2022-09-14T14:15:38;3.40;;;0.85;;
11222;SDS011;5668;52.012;8.724;2022-09-14T14:21:03;1.95;;;0.90;;
11222;SDS011;5668;52.012;8.724;2022-09-14T14:23:38;2.25;;;0.85;;
11222;SDS011;5668;52.012;8.724;2022-09-14T14:26:07;3.15;;;0.80;;
11222;SDS011;5668;52.012;8.724;2022-09-14T14:28:39;2.97;;;1.10;;
11222;SDS011;5668;52.012;8.724;2022-09-14T14:31:11;1.95;;;0.85;;
11222;SDS011;5668;52.012;8.724;2022-09-14T14:33:43;2.55;;;0.75;;
11222;SDS011;5668;52.012;8.724;2022-09-14T14:36:12;3.53;;;0.93;;
11222;SDS011;5668;52.012;8.724;2022-09-14T14:38:39;2.45;;;0.85;;
11222;SDS011;5668;52.012;8.724;2022-09-14T14:41:08;2.13;;;0.80;;
11222;SDS011;5668;52.012;8.724;2022-09-14T14:43:41;1.67;;;0.80;;
11222;SDS011;5668;52.012;8.724;2022-09-14T14:46:10;1.90;;;0.95;;
11222;SDS011;5668;52.012;8.724;2022-09-14T14:48:38;3.30;;;0.93;;
11222;SDS011;5668;52.012;8.724;2022-09-14T14:51:06;2.35;;;1.00;;
11222;SDS011;5668;52.012;8.724;2022-09-14T14:53:37;3.75;;;0.90;;
11222;SDS011;5668;52.012;8.724;2022-09-14T14:56:05;2.60;;;1.02;;
11222;SDS011;5668;52.012;8.724;2022-09-14T14:58:40;2.05;;;0.88;;
11222;SDS011;5668;52.012;8.724;2022-09-14T15:01:09;1.38;;;0.80;;
11222;SDS011;5668;52.012;8.724;2022-09-14T15:03:37;3.67;;;0.88;;
11222;SDS011;5668;52.012;8.724;2022-09-14T15:06:11;1.80;;;0.60;;
11222;SDS011;5668;52.012;8.724;2022-09-14T15:08:40;2.70;;;0.90;;
11222;SDS011;5668;52.012;8.724;2022-09-14T15:11:08;3.05;;;1.00;;
11222;SDS011;5668;52.012;8.724;2022-09-14T15:13:40;2.08;;;0.95;;
11222;SDS011;5668;52.012;8.724;2022-09-14T15:16:09;3.72;;;1.38;;
11222;SDS011;5668;52.012;8.724;2022-09-14T15:18:36;2.92;;;1.00;;
11222;SDS011;5668;52.012;8.724;2022-09-14T15:21:03;2.53;;;1.10;;
11222;SDS011;5668;52.012;8.724;2022-09-14T15:23:31;2.53;;;1.23;;
11222;SDS011;5668;52.012;8.724;2022-09-14T15:25:58;3.13;;;1.10;;
11222;SDS011;5668;52.012;8.724;2022-09-14T15:28:26;1.65;;;0.90;;
11222;SDS011;5668;52.012;8.724;2022-09-14T15:30:54;3.50;;;1.15;;
11222;SDS011;5668;52.012;8.724;2022-09-14T15:33:22;2.95;;;1.17;;
11222;SDS011;5668;52.012;8.724;2022-09-14T15:35:53;5.32;;;1.58;;
11222;SDS011;5668;52.012;8.724;2022-09-14T15:38:21;2.38;;;1.40;;
11222;SDS011;5668;52.012;8.724;2022-09-14T15:40:49;4.15;;;1.30;;
11222;SDS011;5668;52.012;8.724;2022-09-14T15:43:17;4.93;;;1.33;;
11222;SDS011;5668;52.012;8.724;2022-09-14T15:45:44;2.00;;;1.00;;
11222;SDS011;5668;52.012;8.724;2022-09-14T15:48:13;1.50;;;0.90;;
11222;SDS011;5668;52.012;8.724;2022-09-14T15:50:42;3.90;;;1.05;;
11222;SDS011;5668;52.012;8.724;2022-09-14T15:53:10;2.83;;;0.95;;